VAM | Vabird-VBD

Virtual Vabird! Aerolínea Virtual de habla hispana, desde 2011




 INFORMACIÓN METAR y TAF
METAR FOR FNGI
ADDS - METARS form results

(1954 UTC 21 January 2021)
Data provider http://aviationweather.gov/metar/data/
 
Forecast for: FNGI (ONDJIVA , AO)
Text: TAF FNGI 211132Z 2112/2124 22012KT 8000 DZ BKN25
Forecast period: 1200 to 2200 UTC 21 January 2021
Forecast type: FROM: standard forecast or significant change
Winds: from the SW (220 degrees) at 14 MPH (12 knots; 6.2 m/s)
Visibility: 5 miles (8 km)
Ceiling: unknown
Clouds: missing
Weather: DZ  (moderate drizzle)
Text: TEMPO 2114/2120 9999
Forecast period: 1400 to 2000 UTC 21 January 2021
Forecast type: TEMPORARY: The following changes expected for less than half the time period
Visibility: 6 or more miles (10+ km)
Ceiling: unknown
Clouds: missing
Weather: no significant weather forecast for this period
Text: BECMG 2122/2124 2000 +TSRA BKN016 FEW030CB
Forecast period: 2200 UTC 21 January 2021 to 0000 UTC 22 January 2021
Forecast type: BECOMING: Conditions expected to become as follows by 0000 UTC 22 January 2021
Winds: from the SW (220 degrees) at 14 MPH (12 knots; 6.2 m/s)
Visibility: 1.24 miles (2.00 km)
Ceiling: 1600 feet AGL
Clouds: broken clouds at 1600 feet AGL
few clouds at 3000 feet AGL
Weather: +TSRA  (heavy rain associated with thunderstorm(s))

 MAPA DE AEROPUERTO

 INFORMACIÓN DE PISTA